Barney, North Dakota
Current Conditions -  °F | °C
As of 10:35 AM on Wednesday 26 Nov 2014 (Local Time) from KBWP Reporting Station
Overcast Overcast  
Wind Chill: -13°   Ceiling: 11000
Heat Index:   Visibility: 7mi
Dew Point:   Wind: 20mph
Humidity: 72%   Direction: 350°N
Pressure: 30.36"   Gusts: NA
Location:  46.27°N, 97°W
Report Text: KBWP 261635Z AUTO 35017KT 7SM SCT009 SCT014 OVC110 M14/M18 A3036 RMK AO1
Loading
Personal Weather Stations






























Interactive Weather Map New forecast layout! Learn more

10-Day Weather Forecast

Advertisements
Track Severe Weather on mobile